createdAt,value
2022-08-18T00:00:24.007Z,100959.22
2022-08-18T00:03:27.632Z,100959.22
2022-08-18T00:06:28.035Z,100952.13
2022-08-18T00:09:13.036Z,100939.94
2022-08-18T00:12:08.653Z,100943.50
2022-08-18T00:14:57.046Z,100951.56
2022-08-18T00:17:43.592Z,100950.56
2022-08-18T00:20:31.698Z,100957.78
2022-08-18T00:23:13.660Z,100959.53
2022-08-18T00:26:03.655Z,100959.69
2022-08-18T00:28:48.037Z,100951.75
2022-08-18T00:31:37.967Z,100950.00
2022-08-18T00:34:19.814Z,100953.53
2022-08-18T00:37:11.676Z,100959.72
2022-08-18T00:39:53.407Z,100957.13
2022-08-18T00:42:50.772Z,100956.22
2022-08-18T00:45:37.927Z,100946.53
2022-08-18T00:48:26.126Z,100957.13
2022-08-18T00:51:15.240Z,100954.53
2022-08-18T00:54:14.391Z,100960.00
2022-08-18T00:57:01.780Z,100959.25
2022-08-18T01:00:05.439Z,100956.72
2022-08-18T01:02:52.838Z,100962.91
2022-08-18T01:05:49.731Z,100950.59
2022-08-18T01:08:31.025Z,100960.41
2022-08-18T01:11:18.765Z,100952.44
2022-08-18T01:14:07.094Z,100953.38
2022-08-18T01:17:13.719Z,100950.78
2022-08-18T01:20:20.729Z,100944.66
2022-08-18T01:23:19.084Z,100950.78
2022-08-18T01:26:09.283Z,100953.38
2022-08-18T01:28:51.776Z,100948.13
2022-08-18T01:31:54.718Z,100959.59
2022-08-18T01:34:36.055Z,100953.41
2022-08-18T01:37:26.037Z,100957.84
2022-08-18T01:41:11.210Z,100962.25
2022-08-18T01:43:15.831Z,100959.47
2022-08-18T01:45:56.716Z,100958.53
2022-08-18T01:48:48.819Z,100955.84
2022-08-18T01:51:40.223Z,100958.47
2022-08-18T01:54:30.361Z,100965.47
2022-08-18T01:57:11.998Z,100967.13
2022-08-18T02:00:03.603Z,100967.91
2022-08-18T02:03:02.141Z,100964.31
2022-08-18T02:05:56.845Z,100965.13
2022-08-18T02:08:43.503Z,100957.25
2022-08-18T02:11:33.893Z,100953.75
2022-08-18T02:14:27.827Z,100956.47
2022-08-18T02:17:20.914Z,100951.28
2022-08-18T02:20:01.762Z,100944.22
2022-08-18T02:22:49.308Z,100939.94
2022-08-18T02:25:31.215Z,100939.13
2022-08-18T02:28:18.850Z,100933.94
2022-08-18T02:30:59.773Z,100931.28
2022-08-18T02:33:52.864Z,100932.22
2022-08-18T02:39:45.547Z,100950.06
2022-08-18T02:42:26.850Z,100963.13
2022-08-18T02:45:19.826Z,100962.22
2022-08-18T02:48:01.647Z,100967.50
2022-08-18T02:50:56.864Z,100969.22
2022-08-18T02:53:37.875Z,100969.03
2022-08-18T02:59:33.909Z,100976.91
2022-08-18T03:02:21.178Z,100981.41
2022-08-18T03:05:01.859Z,100982.22
2022-08-18T03:07:54.016Z,100975.09
2022-08-18T03:10:37.149Z,100978.56
2022-08-18T03:13:25.162Z,100968.75
2022-08-18T03:16:05.880Z,100981.84
2022-08-18T03:18:55.735Z,100982.72
2022-08-18T03:21:39.369Z,100980.88
2022-08-18T03:24:28.763Z,100980.84
2022-08-18T03:27:13.067Z,100976.53
2022-08-18T03:30:00.410Z,100980.09
2022-08-18T03:32:45.740Z,100978.22
2022-08-18T03:35:32.870Z,100978.03
2022-08-18T03:38:14.092Z,100978.06
2022-08-18T03:41:03.800Z,100981.66
2022-08-18T03:43:51.020Z,100984.38
2022-08-18T03:46:39.794Z,100985.28
2022-08-18T03:49:21.070Z,100994.97
2022-08-18T03:52:08.829Z,100991.34
2022-08-18T03:54:53.197Z,100988.47
2022-08-18T03:57:40.518Z,100987.66
2022-08-18T04:00:23.919Z,100990.28
2022-08-18T04:03:12.143Z,100983.19
2022-08-18T04:05:53.224Z,100985.75
2022-08-18T04:08:41.850Z,100988.41
2022-08-18T04:11:22.921Z,100975.97
2022-08-18T04:14:19.862Z,100983.91
2022-08-18T04:17:07.557Z,100981.34
2022-08-18T04:19:50.556Z,100980.41
2022-08-18T04:22:37.897Z,100980.22
2022-08-18T04:25:20.632Z,100978.59
2022-08-18T04:28:09.979Z,100980.25
2022-08-18T04:30:51.380Z,100977.53
2022-08-18T04:33:37.936Z,100985.47
2022-08-18T04:39:32.041Z,100985.47
2022-08-18T04:42:13.593Z,100994.25
2022-08-18T04:45:01.957Z,100994.19
2022-08-18T04:47:49.203Z,101001.31
2022-08-18T04:50:37.980Z,100992.50
2022-08-18T04:53:37.558Z,100994.31
2022-08-18T04:56:36.900Z,100999.47
2022-08-18T04:59:19.840Z,101000.41
2022-08-18T05:02:14.679Z,101004.91
2022-08-18T05:04:57.760Z,101001.34
2022-08-18T05:07:51.088Z,101007.44
2022-08-18T05:10:32.228Z,101003.94
2022-08-18T05:13:27.802Z,101010.06
2022-08-18T05:16:27.551Z,101011.75
2022-08-18T05:19:15.051Z,101007.31
2022-08-18T05:22:05.935Z,101014.53
2022-08-18T05:24:47.975Z,101016.28
2022-08-18T05:27:41.812Z,101015.31
2022-08-18T05:30:22.957Z,101018.91
2022-08-18T05:33:10.846Z,101016.25
2022-08-18T05:36:01.850Z,101028.41
2022-08-18T05:39:00.843Z,101031.94
2022-08-18T05:41:49.914Z,101042.50
2022-08-18T05:44:41.621Z,101044.06
2022-08-18T05:47:38.588Z,101049.50
2022-08-18T05:50:29.049Z,101045.13
2022-08-18T05:53:20.645Z,101047.78
2022-08-18T05:56:31.251Z,101046.00
2022-08-18T05:59:11.974Z,101059.16
2022-08-18T06:02:12.369Z,101052.81
2022-08-18T06:05:25.848Z,101050.22
2022-08-18T06:08:19.909Z,101056.34
2022-08-18T06:11:01.798Z,101052.94
2022-08-18T06:14:00.023Z,101064.34
2022-08-18T06:17:06.965Z,101067.69
2022-08-18T06:20:12.069Z,101065.03
2022-08-18T06:23:28.661Z,101068.47
2022-08-18T06:26:21.968Z,101069.25
2022-08-18T06:29:53.016Z,101065.69
2022-08-18T06:33:08.986Z,101066.53
2022-08-18T06:36:02.927Z,101073.38
2022-08-18T06:38:57.688Z,101075.09
2022-08-18T06:41:51.972Z,101078.44
2022-08-18T06:44:45.652Z,101073.75
2022-08-18T06:47:35.533Z,101083.84
2022-08-18T06:50:43.573Z,101075.91
2022-08-18T06:54:01.723Z,101077.44
2022-08-18T06:56:46.414Z,101076.34
2022-08-18T06:59:43.884Z,101079.25
2022-08-18T07:02:42.472Z,101079.03
2022-08-18T07:05:40.247Z,101077.81
2022-08-18T07:08:36.083Z,101079.72
2022-08-18T07:11:44.975Z,101081.59
2022-08-18T07:14:34.024Z,101074.72
2022-08-18T07:17:42.471Z,101085.94
2022-08-18T07:20:41.983Z,101086.00
2022-08-18T07:23:38.779Z,101091.63
2022-08-18T07:26:30.122Z,101093.59
2022-08-18T07:29:23.334Z,101090.34
2022-08-18T07:32:32.222Z,101093.28
2022-08-18T07:35:19.315Z,101099.78
2022-08-18T07:38:54.593Z,101089.56
2022-08-18T07:42:11.525Z,101097.53
2022-08-18T07:45:09.280Z,101095.03
2022-08-18T07:48:27.310Z,101099.28
2022-08-18T07:51:54.954Z,101110.47
2022-08-18T07:54:49.719Z,101112.78
2022-08-18T07:57:51.220Z,101113.59
2022-08-18T08:00:59.765Z,101118.03
2022-08-18T08:03:47.353Z,101129.28
2022-08-18T08:06:39.040Z,101132.28
2022-08-18T08:09:39.868Z,101129.56
2022-08-18T08:12:31.141Z,101135.66
2022-08-18T08:15:33.145Z,101134.31
2022-08-18T08:18:29.050Z,101128.75
2022-08-18T08:21:20.956Z,101135.78
2022-08-18T08:24:26.278Z,101128.50
2022-08-18T08:27:20.540Z,101141.84
2022-08-18T08:30:03.223Z,101141.75
2022-08-18T08:33:09.992Z,101150.28
2022-08-18T08:36:13.842Z,101144.44
2022-08-18T08:39:12.748Z,101139.91
2022-08-18T08:42:31.045Z,101141.97
2022-08-18T08:45:42.092Z,101153.91
2022-08-18T08:48:30.089Z,101142.41
2022-08-18T08:51:43.803Z,101143.25
2022-08-18T08:54:31.083Z,101141.50
2022-08-18T08:57:20.315Z,101144.34
2022-08-18T09:00:04.391Z,101138.81
2022-08-18T09:03:15.446Z,101143.16
2022-08-18T09:06:01.096Z,101148.19
2022-08-18T09:08:55.724Z,101155.78
2022-08-18T09:11:36.579Z,101145.69
2022-08-18T09:15:03.486Z,101143.91
2022-08-18T09:18:06.090Z,101154.69
2022-08-18T09:20:59.440Z,101153.84
2022-08-18T09:23:47.225Z,101160.72
2022-08-18T09:26:42.629Z,101149.69
2022-08-18T09:29:46.075Z,101154.03
2022-08-18T09:32:36.345Z,101153.28
2022-08-18T09:35:37.044Z,101164.47
2022-08-18T09:38:48.049Z,101153.59
2022-08-18T09:41:45.677Z,101160.38
2022-08-18T09:45:40.613Z,101148.16
2022-08-18T09:48:44.349Z,101144.31
2022-08-18T09:51:48.975Z,101141.38
2022-08-18T09:54:35.475Z,101138.31
2022-08-18T10:00:42.411Z,101150.31
2022-08-18T10:03:35.163Z,101148.50
2022-08-18T10:06:30.696Z,101155.50
2022-08-18T10:13:21.587Z,101149.78
2022-08-18T10:17:21.353Z,101159.09
2022-08-18T10:24:29.782Z,101163.31
2022-08-18T10:27:04.980Z,101151.50
2022-08-18T10:30:03.648Z,101155.06
2022-08-18T10:32:52.264Z,101159.25
2022-08-18T10:35:46.834Z,101151.78
2022-08-18T10:38:58.655Z,101153.03
2022-08-18T10:42:37.831Z,101144.59
2022-08-18T10:45:32.206Z,101153.66
2022-08-18T10:48:41.103Z,101157.31
2022-08-18T10:55:47.851Z,101146.69
2022-08-18T10:59:06.287Z,101144.34
2022-08-18T11:05:28.556Z,101148.75
2022-08-18T11:08:28.069Z,101145.56
2022-08-18T11:11:37.372Z,101142.72
2022-08-18T11:15:22.623Z,101154.00
2022-08-18T11:18:30.582Z,101157.28
2022-08-18T11:21:45.662Z,101155.44
2022-08-18T11:24:38.307Z,101155.84
2022-08-18T11:27:37.590Z,101157.22
2022-08-18T11:30:31.099Z,101153.81
2022-08-18T11:33:38.209Z,101143.56
2022-08-18T11:36:26.245Z,101149.31
2022-08-18T11:39:24.028Z,101144.75
2022-08-18T11:42:21.959Z,101145.44
2022-08-18T11:45:24.739Z,101139.94
2022-08-18T11:48:23.762Z,101143.38
2022-08-18T11:51:36.496Z,101140.31
2022-08-18T11:54:25.694Z,101150.81
2022-08-18T11:58:00.752Z,101150.28
2022-08-18T12:00:47.588Z,101150.84
2022-08-18T12:03:53.936Z,101157.03
2022-08-18T12:06:44.777Z,101164.13
2022-08-18T12:10:16.375Z,101153.81
2022-08-18T12:13:08.816Z,101168.19
2022-08-18T12:16:25.967Z,101165.81
2022-08-18T12:19:12.157Z,101163.25
2022-08-18T12:22:11.752Z,101159.81
2022-08-18T12:25:01.759Z,101148.53
2022-08-18T12:27:52.102Z,101144.84
2022-08-18T12:30:35.703Z,101152.81
2022-08-18T12:33:34.488Z,101158.63
2022-08-18T12:36:32.182Z,101163.03
2022-08-18T12:39:24.672Z,101171.25
2022-08-18T12:42:10.635Z,101177.16
2022-08-18T12:45:05.334Z,101177.94
2022-08-18T12:47:56.533Z,101177.72
2022-08-18T12:50:58.351Z,101180.97
2022-08-18T12:53:59.279Z,101177.06
2022-08-18T12:56:53.959Z,101165.34
2022-08-18T12:59:44.751Z,101169.56
2022-08-18T13:02:36.739Z,101176.00
2022-08-18T13:05:30.177Z,101175.28
2022-08-18T13:08:38.120Z,101175.97
2022-08-18T13:11:34.109Z,101184.03
2022-08-18T13:14:38.221Z,101178.81
2022-08-18T13:17:34.344Z,101180.13
2022-08-18T13:20:21.784Z,101166.75
2022-08-18T13:23:18.036Z,101178.78
2022-08-18T13:26:08.763Z,101175.28
2022-08-18T13:28:58.368Z,101174.66
2022-08-18T13:31:55.272Z,101175.13
2022-08-18T13:34:45.665Z,101178.84
2022-08-18T13:37:34.283Z,101183.56
2022-08-18T13:40:31.057Z,101188.69
2022-08-18T13:43:17.496Z,101193.78
2022-08-18T13:46:09.261Z,101185.75
2022-08-18T13:48:57.815Z,101184.56
2022-08-18T13:51:51.485Z,101185.41
2022-08-18T13:54:40.477Z,101186.25
2022-08-18T13:57:31.891Z,101199.53
2022-08-18T14:00:29.791Z,101200.31
2022-08-18T14:03:42.863Z,101194.31
2022-08-18T14:06:56.174Z,101184.44
2022-08-18T14:09:48.556Z,101184.44
2022-08-18T14:12:35.677Z,101185.47
2022-08-18T14:15:36.571Z,101180.97
2022-08-18T14:18:28.952Z,101180.97
2022-08-18T14:21:31.145Z,101180.00
2022-08-18T14:24:38.709Z,101185.53
2022-08-18T14:27:21.612Z,101175.66
2022-08-18T14:30:20.893Z,101176.16
2022-08-18T14:33:03.241Z,101171.16
2022-08-18T14:36:07.077Z,101172.38
2022-08-18T14:38:56.928Z,101175.88
2022-08-18T14:41:54.577Z,101173.88
2022-08-18T14:44:40.354Z,101182.69
2022-08-18T14:47:38.274Z,101176.56
2022-08-18T14:50:21.435Z,101168.47
2022-08-18T14:53:20.806Z,101172.00
2022-08-18T14:56:04.219Z,101168.78
2022-08-18T14:58:54.343Z,101167.56
2022-08-18T15:01:42.841Z,101162.34
2022-08-18T15:04:38.400Z,101158.59
2022-08-18T15:07:35.711Z,101157.41
2022-08-18T15:10:28.497Z,101161.13
2022-08-18T15:13:10.518Z,101164.53
2022-08-18T15:16:01.912Z,101163.50
2022-08-18T15:18:43.591Z,101160.56
2022-08-18T15:21:50.481Z,101161.53
2022-08-18T15:24:54.052Z,101157.81
2022-08-18T15:27:47.159Z,101152.44
2022-08-18T15:30:33.310Z,101156.16
2022-08-18T15:33:24.300Z,101162.31
2022-08-18T15:36:05.510Z,101163.16
2022-08-18T15:39:00.646Z,101162.38
2022-08-18T15:41:49.307Z,101166.97
2022-08-18T15:44:37.191Z,101170.41
2022-08-18T15:47:20.966Z,101170.25
2022-08-18T15:50:21.823Z,101169.88
2022-08-18T15:53:10.281Z,101170.91
2022-08-18T15:56:04.180Z,101170.72
2022-08-18T15:58:46.986Z,101168.00
2022-08-18T16:01:39.561Z,101179.72
2022-08-18T16:04:23.309Z,101176.28
2022-08-18T16:07:14.366Z,101177.56
2022-08-18T16:09:55.757Z,101175.38
2022-08-18T16:12:45.895Z,101165.09
2022-08-18T16:15:41.199Z,101164.38
2022-08-18T16:18:29.277Z,101174.13
2022-08-18T16:21:13.755Z,101173.34
2022-08-18T16:24:03.672Z,101171.25
2022-08-18T16:26:44.389Z,101169.34
2022-08-18T16:29:31.287Z,101174.81
2022-08-18T16:32:16.747Z,101178.38
2022-08-18T16:35:06.630Z,101183.22
2022-08-18T16:37:47.433Z,101187.41
2022-08-18T16:40:37.917Z,101184.91
2022-08-18T16:43:19.526Z,101175.44
2022-08-18T16:46:09.407Z,101174.44
2022-08-18T16:48:50.490Z,101167.69
2022-08-18T16:51:39.005Z,101180.72
2022-08-18T16:54:20.822Z,101174.72
2022-08-18T16:57:08.327Z,101177.56
2022-08-18T17:00:34.039Z,101175.41
2022-08-18T17:03:41.382Z,101172.88
2022-08-18T17:06:28.391Z,101174.06
2022-08-18T17:09:19.265Z,101183.03
2022-08-18T17:12:01.340Z,101177.69
2022-08-18T17:14:55.730Z,101183.38
2022-08-18T17:17:42.377Z,101178.50
2022-08-18T17:20:24.703Z,101175.00
2022-08-18T17:23:15.372Z,101174.56
2022-08-18T17:25:58.078Z,101174.09
2022-08-18T17:28:52.591Z,101178.22
2022-08-18T17:31:34.368Z,101176.69
2022-08-18T17:34:24.510Z,101164.06
2022-08-18T17:37:08.352Z,101157.78
2022-08-18T17:40:04.375Z,101164.78
2022-08-18T17:42:48.313Z,101160.03
2022-08-18T17:45:41.416Z,101159.94
2022-08-18T17:48:31.778Z,101161.91
2022-08-18T17:51:34.315Z,101164.66
2022-08-18T17:54:36.283Z,101153.97
2022-08-18T17:57:28.236Z,101154.16
2022-08-18T18:00:20.316Z,101149.97
2022-08-18T18:03:10.653Z,101153.03
2022-08-18T18:06:09.403Z,101148.16
2022-08-18T18:08:58.407Z,101152.94
2022-08-18T18:11:48.352Z,101155.91
2022-08-18T18:14:46.363Z,101165.03
2022-08-18T18:17:32.308Z,101163.22
2022-08-18T18:20:21.920Z,101169.31
2022-08-18T18:23:24.065Z,101169.81
2022-08-18T18:26:37.591Z,101174.63
2022-08-18T18:29:38.488Z,101176.19
2022-08-18T18:32:38.932Z,101180.75
2022-08-18T18:35:27.593Z,101185.66
2022-08-18T18:38:39.980Z,101190.25
2022-08-18T18:41:40.117Z,101195.38
2022-08-18T18:44:39.406Z,101192.13
2022-08-18T18:47:51.247Z,101197.78
2022-08-18T18:51:03.655Z,101205.78
2022-08-18T18:54:27.933Z,101198.72
2022-08-18T18:57:42.790Z,101193.69
2022-08-18T19:00:59.220Z,101199.03
2022-08-18T19:04:13.558Z,101204.97
2022-08-18T19:07:20.942Z,101206.75
2022-08-18T19:10:31.103Z,101210.84
2022-08-18T19:13:26.868Z,101202.22
2022-08-18T19:16:36.227Z,101202.22
2022-08-18T19:19:38.851Z,101205.84
2022-08-18T19:23:07.405Z,101207.41
2022-08-18T19:26:07.525Z,101213.94
2022-08-18T19:29:13.121Z,101221.38
2022-08-18T19:32:25.158Z,101226.03
2022-08-18T19:35:21.707Z,101224.97
2022-08-18T19:38:31.407Z,101227.09
2022-08-18T19:41:43.081Z,101227.88
2022-08-18T19:45:00.376Z,101233.97
2022-08-18T19:47:58.289Z,101233.97
2022-08-18T19:51:18.543Z,101243.19
2022-08-18T19:54:45.659Z,101248.69
2022-08-18T19:58:13.579Z,101246.03
2022-08-18T20:01:02.918Z,101254.94
2022-08-18T20:04:09.420Z,101256.69
2022-08-18T20:07:07.726Z,101258.75
2022-08-18T20:10:20.592Z,101250.88
2022-08-18T20:13:36.699Z,101257.97
2022-08-18T20:16:49.987Z,101246.84
2022-08-18T20:19:57.582Z,101246.25
2022-08-18T20:22:58.978Z,101250.81
2022-08-18T20:25:53.294Z,101258.25
2022-08-18T20:28:49.350Z,101260.97
2022-08-18T20:31:51.808Z,101264.47
2022-08-18T20:34:44.618Z,101259.38
2022-08-18T20:37:33.071Z,101266.81
2022-08-18T20:40:46.878Z,101267.06
2022-08-18T20:43:44.405Z,101266.09
2022-08-18T20:47:06.682Z,101274.34
2022-08-18T20:50:16.949Z,101279.00
2022-08-18T20:53:20.011Z,101270.91
2022-08-18T20:56:31.285Z,101274.53
2022-08-18T20:59:27.984Z,101272.94
2022-08-18T21:02:39.490Z,101275.63
2022-08-18T21:05:36.255Z,101279.84
2022-08-18T21:08:27.978Z,101280.72
2022-08-18T21:11:32.051Z,101288.66
2022-08-18T21:14:43.253Z,101282.41
2022-08-18T21:17:43.348Z,101285.84
2022-08-18T21:20:32.917Z,101281.19
2022-08-18T21:23:44.433Z,101279.56
2022-08-18T21:26:32.418Z,101284.09
2022-08-18T21:29:24.887Z,101281.59
2022-08-18T21:32:42.347Z,101288.84
2022-08-18T21:35:39.461Z,101290.75
2022-08-18T21:38:36.435Z,101288.34
2022-08-18T21:41:42.685Z,101285.09
2022-08-18T21:47:37.446Z,101280.84
2022-08-18T21:50:27.541Z,101283.50
2022-08-18T21:53:33.965Z,101282.81
2022-08-18T21:56:28.424Z,101287.50
2022-08-18T21:59:19.885Z,101294.97
2022-08-18T22:02:03.944Z,101296.81
2022-08-18T22:04:54.471Z,101301.25
2022-08-18T22:07:35.712Z,101301.13
2022-08-18T22:10:52.705Z,101302.03
2022-08-18T22:13:53.205Z,101312.06
2022-08-18T22:16:51.013Z,101313.06
2022-08-18T22:19:39.722Z,101316.06
2022-08-18T22:22:44.639Z,101311.75
2022-08-18T22:25:31.917Z,101317.16
2022-08-18T22:28:12.499Z,101316.41
2022-08-18T22:31:00.982Z,101312.25
2022-08-18T22:33:42.057Z,101307.16
2022-08-18T22:36:35.526Z,101310.63
2022-08-18T22:39:20.594Z,101305.47
2022-08-18T22:42:10.984Z,101308.09
2022-08-18T22:44:51.908Z,101309.16
2022-08-18T22:47:43.656Z,101304.66
2022-08-18T22:50:28.079Z,101313.56
2022-08-18T22:53:14.903Z,101305.63
2022-08-18T22:55:56.522Z,101308.91
2022-08-18T22:58:46.639Z,101304.69
2022-08-18T23:01:27.933Z,101302.88
2022-08-18T23:04:16.769Z,101307.44
2022-08-18T23:06:58.850Z,101305.66
2022-08-18T23:09:47.559Z,101304.13
2022-08-18T23:12:29.250Z,101305.91
2022-08-18T23:15:23.462Z,101301.53
2022-08-18T23:18:12.260Z,101303.50
2022-08-18T23:20:58.255Z,101302.88
2022-08-18T23:23:46.035Z,101295.78
2022-08-18T23:26:26.695Z,101301.13
2022-08-18T23:29:21.203Z,101297.84
2022-08-18T23:32:05.899Z,101310.06
2022-08-18T23:34:53.976Z,101311.03
2022-08-18T23:37:34.635Z,101309.22
2022-08-18T23:40:23.879Z,101313.75
2022-08-18T23:43:04.606Z,101317.50
2022-08-18T23:45:56.947Z,101320.22
2022-08-18T23:48:38.370Z,101319.31
2022-08-18T23:51:36.878Z,101318.59
2022-08-18T23:54:24.632Z,101315.16
2022-08-18T23:57:12.395Z,101316.13
2022-08-18T23:59:54.574Z,101316.22
